Skip Navigation

Christman Field Latest Observations

Switch to metric unitsOther observation timesWeekly graphs

Date Time
MST
Temp
°F
RH
%
DewPt
°F
Wind
mph
Dir
°
Gust
mph
Dir
°
Press
in Hg
Solar
W/m^2
Prec
in
2021-02-28 08:10 26.4 32.1 0.6 0.0 232 0.0 233 0.000 268.6 0.00
2021-02-28 08:05 23.3 36.6 0.6 1.2 233 3.2 233 0.000 252.0 0.00
2021-02-28 08:00 22.5 45.9 4.8 2.5 233 3.3 233 0.000 235.7 0.00
2021-02-28 07:55 22.2 45.8 4.5 3.1 243 4.3 252 0.000 219.7 0.00
2021-02-28 07:50 22.1 44.9 3.9 2.4 238 3.6 238 0.000 204.0 0.00
2021-02-28 07:45 22.4 47.1 5.3 0.9 236 2.3 235 0.000 155.7 0.00
2021-02-28 07:40 21.8 42.2 2.3 1.1 27 2.7 36 0.000 61.6 0.00
2021-02-28 07:35 20.8 47.0 3.7 3.7 45 5.9 57 0.000 148.3 0.00
2021-02-28 07:30 20.7 46.2 3.2 5.0 51 6.3 56 0.000 142.8 0.00
2021-02-28 07:25 20.9 47.1 3.8 2.8 64 5.6 62 0.000 123.1 0.00
2021-02-28 07:20 19.5 44.6 1.4 5.5 92 10.0 71 24.532 108.5 0.00
2021-02-28 07:15 20.1 47.7 3.4 5.8 80 11.2 78 24.533 89.2 0.00
2021-02-28 07:10 19.5 44.9 1.6 7.6 253 9.6 253 24.525 70.9 0.00
2021-02-28 07:05 18.1 48.4 1.9 7.2 237 8.8 240 24.527 54.1 0.00
2021-02-28 07:00 17.3 52.1 2.7 7.4 247 9.5 251 24.533 39.5 0.00
2021-02-28 06:55 17.0 54.0 3.2 6.4 241 7.4 249 24.537 23.5 0.00
2021-02-28 06:50 16.2 49.4 0.5 5.9 282 7.0 289 24.541 14.0 0.00
2021-02-28 06:45 16.3 56.2 3.4 5.5 255 6.7 261 24.538 9.0 0.00
2021-02-28 06:40 16.2 52.6 1.9 8.0 266 10.2 262 24.538 5.6 0.00
2021-02-28 06:35 15.9 53.9 2.1 5.8 278 7.3 251 24.535 3.6 0.00
2021-02-28 06:30 15.7 54.0 2.0 7.2 252 8.6 267 24.535 2.1 0.00
2021-02-28 06:25 15.8 52.7 1.6 7.2 238 8.5 249 24.535 1.0 0.00
2021-02-28 06:20 14.9 56.3 2.1 6.9 245 8.6 263 24.533 0.3 0.00
2021-02-28 06:15 15.5 60.1 4.2 5.8 254 7.0 254 24.531 0.2 0.00
2021-02-28 06:10 16.1 56.7 3.4 4.9 250 6.1 251 24.530 0.1 0.00
2021-02-28 06:05 17.1 54.0 3.3 2.7 266 3.3 275 24.534 0.0 0.00
2021-02-28 06:00 17.3 53.1 3.2 2.7 279 3.3 275 24.534 0.0 0.00
2021-02-28 05:55 15.7 58.7 3.8 1.2 272 2.4 272 24.532 0.0 0.00
2021-02-28 05:50 15.6 59.4 3.9 0.0 337 0.6 334 24.527 0.0 0.00
2021-02-28 05:45 16.1 62.1 5.4 0.0 277 0.0 277 24.524 0.1 0.00